Terminal Aerodrome Forecast
Issued by NWS

Home | Current Version | Previous Version | Text Only | Print | Product List | Glossary On
Versions: 1 2 3 4 5 6 7 8 9 10 11 12 13 14 15 16 17 18
784
FTUS43 KDLH 131745
TAFHIB
TAF
KHIB 131745Z 1318/1418 22006KT 6SM -SHRA BR BKN060 OVC100
     FM132200 16007KT P6SM VCSH OVC070
     FM140000 13004KT P6SM -RA SCT020 OVC050
     FM140600 10003KT 4SM -RA BR SCT007 OVC020
     FM141400 08004KT P6SM VCSH BKN040 OVC080=

USA.gov is the U.S. government's official web portal to all federal, state and local government web resources and services.